Terminal Aerodrome Forecast
Issued by NWS Tampa Bay Area, FL

Home | Current Version | Previous Version | Text Only | Print | Product List | Glossary Off
Versions: 1 2 3 4 5 6 7 8 9 10 11 12 13 14 15 16

610
FTUS42 KTBW 242320
TAFSRQ
TAF
KSRQ 242320Z 2500/2524 24018G30KT P6SM VCSH BKN020 OVC050
     FM250300 24018G28KT P6SM VCSH SCT025 OVC050
     FM250900 26017G27KT P6SM VCSH SCT015 OVC025
     FM251300 27015G25KT P6SM SCT025 BKN035 OVC050
     FM251600 28017G26KT P6SM SCT030 BKN050=

USA.gov is the U.S. government's official web portal to all federal, state and local government web resources and services.